createdAt,value
2022-09-28T00:03:18.005Z,8.94
2022-09-28T00:08:22.889Z,9.21
2022-09-28T00:13:26.541Z,9.40
2022-09-28T00:18:30.356Z,9.11
2022-09-28T00:23:56.465Z,8.85
2022-09-28T00:29:01.948Z,8.80
2022-09-28T00:34:06.327Z,8.58
2022-09-28T00:39:12.094Z,8.43
2022-09-28T00:44:38.722Z,8.31
2022-09-28T00:49:50.299Z,8.37
2022-09-28T00:55:01.273Z,8.33
2022-09-28T01:00:07.597Z,8.38
2022-09-28T01:05:16.581Z,8.35
2022-09-28T01:10:24.060Z,8.25
2022-09-28T01:15:30.319Z,8.35
2022-09-28T01:20:51.312Z,8.27
2022-09-28T01:26:02.010Z,8.28
2022-09-28T01:31:11.032Z,8.23
2022-09-28T01:36:20.731Z,8.19
2022-09-28T01:41:26.219Z,8.22
2022-09-28T01:46:38.271Z,8.07
2022-09-28T01:51:47.713Z,8.14
2022-09-28T01:56:55.475Z,8.15
2022-09-28T02:02:05.654Z,8.11
2022-09-28T02:07:14.542Z,8.10
2022-09-28T02:12:26.802Z,8.08
2022-09-28T02:17:31.819Z,7.80
2022-09-28T02:22:40.747Z,7.91
2022-09-28T02:27:51.089Z,7.65
2022-09-28T02:33:00.197Z,7.68
2022-09-28T02:38:04.384Z,7.52
2022-09-28T02:43:15.862Z,7.43
2022-09-28T02:48:43.648Z,7.25
2022-09-28T02:54:21.532Z,7.14
2022-09-28T02:59:41.191Z,6.98
2022-09-28T03:04:58.968Z,6.93
2022-09-28T03:10:14.750Z,6.70
2022-09-28T03:15:22.487Z,6.70
2022-09-28T03:20:27.956Z,6.79
2022-09-28T03:25:31.908Z,6.94
2022-09-28T03:30:35.310Z,6.84
2022-09-28T03:35:40.390Z,6.83
2022-09-28T03:40:43.941Z,6.91
2022-09-28T03:45:53.148Z,6.82
2022-09-28T03:50:59.785Z,6.56
2022-09-28T03:56:04.407Z,6.66
2022-09-28T04:01:16.392Z,6.54
2022-09-28T04:06:23.569Z,6.64
2022-09-28T04:11:26.982Z,6.63
2022-09-28T04:16:30.533Z,6.54
2022-09-28T04:21:46.786Z,6.46
2022-09-28T04:26:51.234Z,6.41
2022-09-28T04:31:56.095Z,6.37
2022-09-28T04:37:21.088Z,6.30
2022-09-28T04:42:24.438Z,6.37
2022-09-28T04:47:30.488Z,6.33
2022-09-28T04:53:11.260Z,6.52
2022-09-28T04:58:15.705Z,6.64
2022-09-28T05:03:22.508Z,6.81
2022-09-28T05:08:51.043Z,6.98
2022-09-28T05:13:54.451Z,6.80
2022-09-28T05:18:57.967Z,6.89
2022-09-28T05:24:07.487Z,6.69
2022-09-28T05:29:12.978Z,6.72
2022-09-28T05:34:35.240Z,6.70
2022-09-28T05:39:40.125Z,6.85
2022-09-28T05:44:43.455Z,6.70
2022-09-28T05:49:47.001Z,6.83
2022-09-28T05:54:51.871Z,7.06
2022-09-28T05:59:55.344Z,7.10
2022-09-28T06:04:59.159Z,7.37
2022-09-28T06:10:04.012Z,7.77
2022-09-28T06:15:17.549Z,7.41
2022-09-28T06:20:22.977Z,7.22
2022-09-28T06:25:43.090Z,7.48
2022-09-28T06:30:48.306Z,7.66
2022-09-28T06:35:54.567Z,7.63
2022-09-28T06:40:59.943Z,9.65
2022-09-28T06:46:03.615Z,13.10
2022-09-28T06:51:07.565Z,14.03
2022-09-28T06:56:33.095Z,14.51
2022-09-28T07:01:36.849Z,13.38
2022-09-28T07:06:56.129Z,13.24
2022-09-28T07:12:19.213Z,12.90
2022-09-28T07:17:27.484Z,14.24
2022-09-28T07:22:42.302Z,15.59
2022-09-28T07:27:50.438Z,16.12
2022-09-28T07:33:15.097Z,15.52
2022-09-28T07:38:38.382Z,14.21
2022-09-28T07:43:43.259Z,13.81
2022-09-28T07:48:46.614Z,13.84
2022-09-28T07:53:58.627Z,12.28
2022-09-28T07:59:20.387Z,12.13
2022-09-28T08:04:43.208Z,12.00
2022-09-28T08:09:47.570Z,11.48
2022-09-28T08:15:06.913Z,11.23
2022-09-28T08:20:37.541Z,11.25
2022-09-28T08:25:40.991Z,12.64
2022-09-28T08:30:48.577Z,13.06
2022-09-28T08:36:14.898Z,11.51
2022-09-28T08:41:40.703Z,12.06
2022-09-28T08:46:57.669Z,13.17
2022-09-28T08:52:31.155Z,13.88
2022-09-28T08:57:59.187Z,11.93
2022-09-28T09:03:07.401Z,11.85
2022-09-28T09:08:27.302Z,12.22
2022-09-28T09:14:09.041Z,12.90
2022-09-28T09:19:20.445Z,12.84
2022-09-28T09:24:47.848Z,13.11
2022-09-28T09:30:03.844Z,12.63
2022-09-28T09:35:26.466Z,12.84
2022-09-28T09:40:48.645Z,11.86
2022-09-28T09:46:18.451Z,11.64
2022-09-28T09:51:40.898Z,12.53
2022-09-28T09:56:52.810Z,13.18
2022-09-28T10:02:28.178Z,12.90
2022-09-28T10:07:48.846Z,13.51
2022-09-28T10:12:53.252Z,14.02
2022-09-28T10:18:00.283Z,14.12
2022-09-28T10:23:37.675Z,14.86
2022-09-28T10:28:48.692Z,14.74
2022-09-28T10:33:54.431Z,13.78
2022-09-28T10:38:59.496Z,13.56
2022-09-28T10:44:08.772Z,14.23
2022-09-28T10:49:46.791Z,14.81
2022-09-28T10:54:55.076Z,14.87
2022-09-28T10:59:59.829Z,14.68
2022-09-28T11:05:27.907Z,14.60
2022-09-28T11:10:39.704Z,15.39
2022-09-28T11:15:50.338Z,16.32
2022-09-28T11:21:18.537Z,15.34
2022-09-28T11:26:42.710Z,14.93
2022-09-28T11:31:53.960Z,14.58
2022-09-28T11:37:12.788Z,14.55
2022-09-28T11:42:34.198Z,14.67
2022-09-28T11:47:48.308Z,15.12
2022-09-28T11:53:00.980Z,15.03
2022-09-28T11:58:21.437Z,15.77
2022-09-28T12:03:34.117Z,16.16
2022-09-28T12:08:42.600Z,15.80
2022-09-28T12:14:27.692Z,14.67
2022-09-28T12:19:37.271Z,14.26
2022-09-28T12:24:45.748Z,14.14
2022-09-28T12:29:56.687Z,14.47
2022-09-28T12:35:00.132Z,15.03
2022-09-28T12:40:37.071Z,15.84
2022-09-28T12:46:13.721Z,16.07
2022-09-28T12:51:33.603Z,15.80
2022-09-28T12:56:43.254Z,15.87
2022-09-28T13:02:10.597Z,16.22
2022-09-28T13:07:21.734Z,15.79
2022-09-28T13:12:41.489Z,14.97
2022-09-28T13:17:52.249Z,14.74
2022-09-28T13:23:06.051Z,14.40
2022-09-28T13:28:15.701Z,14.22
2022-09-28T13:33:30.531Z,14.03
2022-09-28T13:38:49.667Z,13.93
2022-09-28T13:44:22.443Z,13.88
2022-09-28T13:49:40.663Z,13.78
2022-09-28T13:55:01.574Z,13.75
2022-09-28T14:00:16.550Z,13.60
2022-09-28T14:05:42.461Z,13.18
2022-09-28T14:10:52.216Z,13.01
2022-09-28T14:16:15.575Z,12.88
2022-09-28T14:21:50.015Z,12.90
2022-09-28T14:27:24.614Z,13.00
2022-09-28T14:32:37.572Z,12.97
2022-09-28T14:38:05.440Z,12.95
2022-09-28T14:43:28.170Z,12.96
2022-09-28T14:48:57.776Z,12.98
2022-09-28T14:54:05.568Z,12.67
2022-09-28T14:59:36.370Z,12.81
2022-09-28T15:05:04.363Z,12.93
2022-09-28T15:10:32.961Z,12.85
2022-09-28T15:15:40.229Z,12.90
2022-09-28T15:20:47.833Z,12.96
2022-09-28T15:26:07.305Z,12.90
2022-09-28T15:31:27.506Z,11.65
2022-09-28T15:36:33.570Z,11.05
2022-09-28T15:41:38.557Z,10.43
2022-09-28T15:46:44.276Z,10.09
2022-09-28T15:51:53.258Z,9.99
2022-09-28T15:57:00.012Z,10.01
2022-09-28T16:02:12.739Z,9.82
2022-09-28T16:07:38.800Z,9.75
2022-09-28T16:12:48.443Z,9.82
2022-09-28T16:17:55.376Z,10.02
2022-09-28T16:23:05.775Z,10.23
2022-09-28T16:28:26.426Z,10.22
2022-09-28T16:33:32.773Z,10.26
2022-09-28T16:38:37.583Z,10.30
2022-09-28T16:43:42.561Z,10.30
2022-09-28T16:48:49.586Z,10.21
2022-09-28T16:54:11.511Z,10.25
2022-09-28T16:59:17.129Z,10.37
2022-09-28T17:04:20.634Z,10.37
2022-09-28T17:10:02.436Z,10.38
2022-09-28T17:15:08.421Z,10.49
2022-09-28T17:20:22.497Z,10.58
2022-09-28T17:25:28.779Z,10.62
2022-09-28T17:30:33.955Z,10.51
2022-09-28T17:35:39.843Z,10.88
2022-09-28T17:40:54.042Z,11.05
2022-09-28T17:46:03.725Z,11.06
2022-09-28T17:51:17.713Z,11.18
2022-09-28T17:56:34.029Z,11.03
2022-09-28T18:01:40.216Z,11.16
2022-09-28T18:06:44.540Z,10.96
2022-09-28T18:11:48.547Z,11.00
2022-09-28T18:16:53.563Z,11.04
2022-09-28T18:21:58.391Z,11.02
2022-09-28T18:27:02.181Z,10.95
2022-09-28T18:32:21.275Z,10.91
2022-09-28T18:37:28.503Z,10.79
2022-09-28T18:42:35.736Z,10.63
2022-09-28T18:47:41.248Z,10.88
2022-09-28T18:52:47.409Z,10.82
2022-09-28T18:57:54.710Z,10.59
2022-09-28T19:03:00.061Z,10.52
2022-09-28T19:08:03.813Z,10.49
2022-09-28T19:13:07.477Z,10.45
2022-09-28T19:18:12.220Z,10.32
2022-09-28T19:23:15.715Z,10.16
2022-09-28T19:28:19.129Z,10.12
2022-09-28T19:33:24.007Z,10.11
2022-09-28T19:38:29.660Z,10.13
2022-09-28T19:43:35.209Z,10.06
2022-09-28T19:48:42.435Z,10.07
2022-09-28T19:53:54.768Z,10.04
2022-09-28T19:58:58.473Z,9.96
2022-09-28T20:04:05.177Z,9.98
2022-09-28T20:09:23.659Z,9.86
2022-09-28T20:14:38.051Z,9.86
2022-09-28T20:19:45.071Z,10.00
2022-09-28T20:24:48.417Z,10.34
2022-09-28T20:29:51.732Z,10.33
2022-09-28T20:34:56.432Z,10.44
2022-09-28T20:40:00.998Z,10.35
2022-09-28T20:45:05.214Z,10.31
2022-09-28T20:50:11.468Z,10.28
2022-09-28T20:55:15.777Z,10.17
2022-09-28T21:00:19.196Z,10.08
2022-09-28T21:05:41.809Z,10.24
2022-09-28T21:10:48.429Z,10.24
2022-09-28T21:15:52.371Z,10.26
2022-09-28T21:20:58.210Z,10.27
2022-09-28T21:26:09.695Z,10.34
2022-09-28T21:31:15.228Z,10.23
2022-09-28T21:36:20.367Z,10.35
2022-09-28T21:41:24.184Z,10.31
2022-09-28T21:46:33.791Z,10.20
2022-09-28T21:51:39.733Z,10.20
2022-09-28T21:56:43.133Z,10.18
2022-09-28T22:01:48.212Z,10.11
2022-09-28T22:06:53.019Z,9.79
2022-09-28T22:11:56.650Z,9.92
2022-09-28T22:17:00.042Z,10.05
2022-09-28T22:22:04.751Z,9.99
2022-09-28T22:27:08.825Z,9.84
2022-09-28T22:32:12.161Z,9.92
2022-09-28T22:37:16.879Z,9.90
2022-09-28T22:42:21.112Z,9.59
2022-09-28T22:47:24.495Z,9.77
2022-09-28T22:52:29.195Z,9.81
2022-09-28T22:57:32.657Z,9.73
2022-09-28T23:02:36.247Z,9.70
2022-09-28T23:07:41.035Z,9.55
2022-09-28T23:12:44.499Z,9.44
2022-09-28T23:17:52.033Z,9.44
2022-09-28T23:22:56.786Z,9.37
2022-09-28T23:28:00.179Z,9.28
2022-09-28T23:33:03.482Z,9.39
2022-09-28T23:38:08.674Z,9.36
2022-09-28T23:43:12.249Z,9.40
2022-09-28T23:48:15.618Z,9.46
2022-09-28T23:53:20.331Z,9.35
2022-09-28T23:58:24.270Z,9.36
